Time;durP1;ratioP1;P1;durP2;ratioP2;P2;SDS_P1;SDS_P2;PMS_P1;PMS_P2;Temp;Humidity;BMP_temperature;BMP_pressure;BME280_temperature;BME280_humidity;BME280_pressure;Samples;Min_cycle;Max_cycle;Signal;HPM_P1;HPM_P2
2022/08/11 00:00:16;;;;;;;;;;;;;;;28.08;36.42;99451.66;2082918;28;19917;-60
2022/08/11 00:01:19;;;;;;;;;;;;;;;28.07;36.38;99444.41;2085895;28;19962;-60
2022/08/11 00:02:26;;;;;;;;;;;;;;;28.08;36.53;99451.66;2082913;28;20112;-60
2022/08/11 00:03:26;;;;;;;;;;;;;;;28.07;36.46;99446.31;2084097;28;20980;-61
2022/08/11 00:04:33;;;;;;;;;;;;;;;28.07;36.77;99449.09;2081632;28;19916;-60
2022/08/11 00:05:43;;;;;;;;;;;;;;;28.07;36.52;99447.16;2083924;28;19913;-60
2022/08/11 00:06:44;;;;;;;;;;;;;;;28.07;36.79;99447.16;2078547;28;19905;-60
2022/08/11 00:07:46;;;;;;;;;;;;;;;28.07;36.53;99446.31;2084931;28;20525;-60
2022/08/11 00:08:49;;;;;;;;;;;;;;;28.08;36.66;99451.66;2082949;28;19921;-60
2022/08/11 00:09:50;;;;;;;;;;;;;;;28.07;36.62;99455.47;2080060;28;19978;-60
2022/08/11 00:10:52;;;;;;;;;;;;;;;28.07;36.68;99455.47;2079839;28;19917;-60
2022/08/11 00:11:54;;;;;;;;;;;;;;;28.07;36.85;99451.88;2083892;28;19920;-60
2022/08/11 00:12:59;;;;;;;;;;;;;;;28.06;36.77;99459.34;2084712;28;19904;-60
2022/08/11 00:14:00;;;;;;;;;;;;;;;28.06;36.66;99456.56;2080198;28;20165;-60
2022/08/11 00:15:00;;;;;;;;;;;;;;;28.07;36.78;99463.78;2077679;28;19917;-60
2022/08/11 00:16:03;;;;;;;;;;;;;;;28.07;36.94;99460.19;2078429;28;19997;-60
2022/08/11 00:17:05;;;;;;;;;;;;;;;28.07;37.07;99465.72;2075874;28;19924;-60
2022/08/11 00:18:06;;;;;;;;;;;;;;;28.07;37.05;99465.72;2078519;28;20004;-60
2022/08/11 00:19:07;;;;;;;;;;;;;;;28.06;36.89;99459.34;2078666;28;19916;-61
2022/08/11 00:20:08;;;;;;;;;;;;;;;28.05;37.00;99457.66;2086671;28;19909;-61
2022/08/11 00:21:09;;;;;;;;;;;;;;;28.05;37.22;99459.53;2084055;28;19916;-60
2022/08/11 00:22:10;;;;;;;;;;;;;;;28.04;37.03;99458.72;2082638;28;20315;-60
2022/08/11 00:23:12;;;;;;;;;;;;;;;28.04;37.05;99460.63;2074711;28;20055;-60
2022/08/11 00:24:13;;;;;;;;;;;;;;;28.04;37.28;99463.41;2084253;28;19947;-60
2022/08/11 00:25:16;;;;;;;;;;;;;;;28.03;37.15;99464.47;2084471;28;19916;-60
2022/08/11 00:26:17;;;;;;;;;;;;;;;28.02;37.03;99463.63;2084216;28;20188;-61
2022/08/11 00:27:17;;;;;;;;;;;;;;;28.03;37.02;99465.31;2078529;28;19920;-60
2022/08/11 00:28:23;;;;;;;;;;;;;;;28.03;36.97;99465.31;2085405;28;20379;-60
2022/08/11 00:29:24;;;;;;;;;;;;;;;28.04;37.01;99466.16;2082494;28;19917;-60
2022/08/11 00:30:24;;;;;;;;;;;;;;;28.02;37.16;99466.38;2085404;28;19919;-60
2022/08/11 00:31:29;;;;;;;;;;;;;;;28.02;37.28;99466.38;2077589;28;19913;-61
2022/08/11 00:32:29;;;;;;;;;;;;;;;28.03;37.31;99465.31;2081086;28;20532;-60
2022/08/11 00:33:36;;;;;;;;;;;;;;;28.03;37.22;99470.88;2077951;28;20375;-60
2022/08/11 00:34:37;;;;;;;;;;;;;;;28.03;37.24;99462.56;2081128;28;19924;-61
2022/08/11 00:35:37;;;;;;;;;;;;;;;28.03;37.04;99470.88;2080850;28;19911;-60
2022/08/11 00:36:41;;;;;;;;;;;;;;;28.03;37.13;99470.00;2084941;28;19954;-60
2022/08/11 00:37:49;;;;;;;;;;;;;;;28.01;37.23;99467.47;2083400;28;19921;-60
2022/08/11 00:38:50;;;;;;;;;;;;;;;28.00;37.31;99468.53;2083093;28;20287;-61
2022/08/11 00:39:52;;;;;;;;;;;;;;;27.99;37.19;99467.69;2078316;28;19967;-60
2022/08/11 00:41:12;;;;;;;;;;;;;;;28.00;37.23;99468.53;2082843;28;19966;-60
2022/08/11 00:42:12;;;;;;;;;;;;;;;27.99;37.30;99464.06;2081237;28;19916;-61
2022/08/11 00:43:31;;;;;;;;;;;;;;;28.00;37.33;99469.41;2081203;28;19956;-60
2022/08/11 00:44:31;;;;;;;;;;;;;;;27.99;37.59;99462.16;2083046;28;19913;-60
2022/08/11 00:45:38;;;;;;;;;;;;;;;28.00;37.42;99474.06;2086880;28;19928;-60
2022/08/11 00:46:53;;;;;;;;;;;;;;;28.00;37.58;99471.28;2083821;28;19962;-61
2022/08/11 00:48:10;;;;;;;;;;;;;;;27.99;37.63;99472.38;2079774;28;19938;-60
2022/08/11 00:49:23;;;;;;;;;;;;;;;27.99;37.51;99472.38;2081649;28;20414;-60
2022/08/11 00:50:42;;;;;;;;;;;;;;;27.99;37.63;99473.22;2084468;28;19997;-60
2022/08/11 00:52:00;;;;;;;;;;;;;;;28.00;37.83;99471.28;2085101;28;19927;-60
2022/08/11 00:53:19;;;;;;;;;;;;;;;27.99;37.66;99475.16;2079439;28;20486;-60
2022/08/11 00:54:46;;;;;;;;;;;;;;;28.00;37.83;99471.28;2081199;28;19947;-60
2022/08/11 00:55:46;;;;;;;;;;;;;;;27.98;38.04;99467.94;2077187;28;19916;-60
2022/08/11 00:56:49;;;;;;;;;;;;;;;27.98;38.15;99470.69;2085321;28;19916;-60
2022/08/11 00:58:04;;;;;;;;;;;;;;;27.98;38.04;99471.53;2079627;28;19919;-60
2022/08/11 00:59:20;;;;;;;;;;;;;;;27.98;38.16;99467.94;2080709;28;20003;-60
2022/08/11 01:00:24;;;;;;;;;;;;;;;27.98;38.15;99471.53;2082662;28;19996;-60
2022/08/11 01:01:48;;;;;;;;;;;;;;;27.98;37.94;99476.25;2079932;28;19947;-60
2022/08/11 01:02:54;;;;;;;;;;;;;;;27.98;38.17;99473.47;2051202;28;19925;-61
2022/08/11 01:04:13;;;;;;;;;;;;;;;27.97;38.25;99472.59;2068541;28;20419;-60
2022/08/11 01:05:32;;;;;;;;;;;;;;;27.98;38.18;99479.00;2071421;28;19970;-61
2022/08/11 01:06:45;;;;;;;;;;;;;;;27.98;38.34;99474.31;2079601;28;19908;-60
2022/08/11 01:08:04;;;;;;;;;;;;;;;27.99;38.32;99475.16;2079915;28;19913;-60
2022/08/11 01:09:23;;;;;;;;;;;;;;;27.98;38.26;99474.31;2077478;28;20007;-61
2022/08/11 01:10:43;;;;;;;;;;;;;;;27.98;38.30;99467.94;2080005;28;20410;-60
2022/08/11 01:11:55;;;;;;;;;;;;;;;27.98;38.50;99473.47;2086205;28;19956;-60
2022/08/11 01:12:55;;;;;;;;;;;;;;;27.97;38.39;99472.59;2081720;28;19904;-61
2022/08/11 01:14:34;;;;;;;;;;;;;;;27.97;38.52;99468.97;2074923;28;19955;-60
2022/08/11 01:15:52;;;;;;;;;;;;;;;27.96;38.46;99470.06;2047384;28;19936;-60
2022/08/11 01:16:53;;;;;;;;;;;;;;;27.97;38.68;99468.97;2041517;28;19918;-60
2022/08/11 01:18:16;;;;;;;;;;;;;;;27.96;38.74;99470.91;2052257;28;19956;-61
2022/08/11 01:19:20;;;;;;;;;;;;;;;27.95;38.73;99469.22;2016649;29;19943;-60
2022/08/11 01:20:21;;;;;;;;;;;;;;;27.95;38.94;99468.34;2045341;28;19944;-60
2022/08/11 01:21:40;;;;;;;;;;;;;;;27.94;39.04;99467.50;2069254;28;19956;-60
2022/08/11 01:22:40;;;;;;;;;;;;;;;27.96;39.10;99472.84;2081078;28;19996;-60
2022/08/11 01:23:52;;;;;;;;;;;;;;;27.96;39.03;99478.38;2080493;28;19920;-60
2022/08/11 01:24:59;;;;;;;;;;;;;;;27.95;39.16;99476.66;2084037;28;19916;-60
2022/08/11 01:26:01;;;;;;;;;;;;;;;27.93;39.38;99476.06;2070637;28;20181;-60
2022/08/11 01:27:20;;;;;;;;;;;;;;;27.93;39.37;99476.06;2069256;28;20003;-60
2022/08/11 01:28:39;;;;;;;;;;;;;;;27.93;39.84;99476.06;2079234;28;19925;-60
2022/08/11 01:29:58;;;;;;;;;;;;;;;27.91;39.77;99472.66;2085474;28;20011;-60
2022/08/11 01:30:58;;;;;;;;;;;;;;;27.89;39.97;99463.72;2082919;28;19912;-60
2022/08/11 01:32:02;;;;;;;;;;;;;;;27.89;39.86;99472.03;2084406;28;19931;-61
2022/08/11 01:33:11;;;;;;;;;;;;;;;27.88;39.79;99467.53;2085260;28;19942;-60
2022/08/11 01:34:38;;;;;;;;;;;;;;;27.89;39.91;99474.81;2082626;28;19915;-61
2022/08/11 01:35:51;;;;;;;;;;;;;;;27.90;39.82;99473.72;2051443;28;19918;-60
2022/08/11 01:36:55;;;;;;;;;;;;;;;27.90;39.90;99476.47;2080517;28;19938;-60
2022/08/11 01:38:14;;;;;;;;;;;;;;;27.90;39.88;99473.72;2080044;28;19940;-60
2022/08/11 01:39:37;;;;;;;;;;;;;;;27.90;39.96;99471.78;2079578;28;19917;-60
2022/08/11 01:40:56;;;;;;;;;;;;;;;27.89;40.14;99474.81;2080531;28;19995;-60
2022/08/11 01:45:18;;;;;;;;;;;;;;;27.91;40.39;99464.34;2076725;28;19917;-60
2022/08/11 01:46:32;;;;;;;;;;;;;;;27.90;40.60;99460.72;2085578;28;20368;-60
2022/08/11 01:47:50;;;;;;;;;;;;;;;27.89;40.46;99461.78;2085388;28;20258;-60
2022/08/11 01:48:56;;;;;;;;;;;;;;;27.89;40.51;99466.50;2083381;28;20413;-60
2022/08/11 01:50:16;;;;;;;;;;;;;;;27.91;40.37;99464.34;2078095;28;19956;-60
2022/08/11 01:51:35;;;;;;;;;;;;;;;27.90;40.47;99466.25;2076351;28;20359;-60
2022/08/11 01:52:43;;;;;;;;;;;;;;;27.89;40.39;99464.56;2078207;28;19999;-61
2022/08/11 01:53:49;;;;;;;;;;;;;;;27.90;40.53;99459.88;2082272;28;19924;-61
2022/08/11 01:55:08;;;;;;;;;;;;;;;27.90;40.59;99465.41;2084101;28;20494;-60
2022/08/11 01:56:19;;;;;;;;;;;;;;;27.89;40.62;99470.09;2081754;28;19943;-60
2022/08/11 01:57:41;;;;;;;;;;;;;;;27.90;40.74;99466.25;2080352;28;19919;-60
2022/08/11 01:59:01;;;;;;;;;;;;;;;27.91;40.59;99473.50;2076454;28;20003;-60
2022/08/11 02:00:11;;;;;;;;;;;;;;;27.89;40.89;99467.34;2065758;28;19913;-60
2022/08/11 02:01:15;;;;;;;;;;;;;;;27.90;40.77;99465.41;2083529;28;20527;-60
2022/08/11 02:03:50;;;;;;;;;;;;;;;27.91;40.67;99467.97;2078041;28;19913;-60
2022/08/11 02:04:50;;;;;;;;;;;;;;;27.90;40.87;99477.31;2083282;28;19924;-60
2022/08/11 02:05:59;;;;;;;;;;;;;;;27.90;40.75;99468.19;2082913;28;19959;-60
2022/08/11 02:07:03;;;;;;;;;;;;;;;27.89;40.89;99466.50;2084204;28;19916;-60
2022/08/11 02:08:22;;;;;;;;;;;;;;;27.90;40.78;99477.31;2081952;28;19956;-60
2022/08/11 02:09:26;;;;;;;;;;;;;;;27.89;41.04;99466.50;2079700;28;19978;-60
2022/08/11 02:11:51;;;;;;;;;;;;;;;27.89;41.12;99475.63;2073182;28;19921;-60
2022/08/11 02:13:04;;;;;;;;;;;;;;;27.89;41.28;99481.19;2084419;28;20253;-61
2022/08/11 02:14:23;;;;;;;;;;;;;;;27.90;41.10;99482.03;2083476;28;19951;-61
2022/08/11 02:15:23;;;;;;;;;;;;;;;27.90;41.26;99484.78;2078909;28;20007;-60
2022/08/11 02:16:23;;;;;;;;;;;;;;;27.89;41.19;99478.41;2083510;28;19923;-60
2022/08/11 02:17:42;;;;;;;;;;;;;;;27.90;41.18;99482.88;2084778;28;19935;-60
2022/08/11 02:24:27;;;;;;;;;;;;;;;27.90;41.17;99487.56;2082217;28;19916;-61
2022/08/11 02:25:34;;;;;;;;;;;;;;;27.91;41.31;99489.28;2080701;28;19959;-60
2022/08/11 02:26:39;;;;;;;;;;;;;;;27.91;41.11;99483.75;2079402;28;19973;-61
2022/08/11 02:27:40;;;;;;;;;;;;;;;27.90;41.17;99487.56;2080063;28;20397;-61
2022/08/11 02:28:40;;;;;;;;;;;;;;;27.91;41.26;99483.75;2080101;28;20302;-60
2022/08/11 02:29:48;;;;;;;;;;;;;;;27.90;41.16;99487.56;2087194;28;19916;-60
2022/08/11 02:33:40;;;;;;;;;;;;;;;27.90;41.30;99490.34;2082134;28;19916;-61
2022/08/11 02:34:49;;;;;;;;;;;;;;;27.90;41.37;99484.78;2077967;28;19972;-60
2022/08/11 02:35:56;;;;;;;;;;;;;;;27.90;41.45;99484.78;2084211;28;19936;-60
2022/08/11 02:37:02;;;;;;;;;;;;;;;27.90;41.25;99493.09;2084497;28;20287;-60
2022/08/11 02:38:23;;;;;;;;;;;;;;;27.89;41.31;99486.72;2086903;28;19908;-61
2022/08/11 02:39:28;;;;;;;;;;;;;;;27.88;41.52;99485.03;2087300;28;19952;-61
2022/08/11 02:40:30;;;;;;;;;;;;;;;27.89;41.40;99483.94;2085871;28;19982;-60
2022/08/11 02:43:14;;;;;;;;;;;;;;;27.88;41.43;99484.16;2082933;28;19920;-61
2022/08/11 02:44:24;;;;;;;;;;;;;;;27.88;41.26;99492.47;2085546;28;19924;-61
2022/08/11 02:45:36;;;;;;;;;;;;;;;27.88;41.46;99484.16;2081885;28;19955;-60
2022/08/11 02:46:42;;;;;;;;;;;;;;;27.88;41.20;99492.47;2084442;28;20010;-60
2022/08/11 02:49:52;;;;;;;;;;;;;;;27.89;41.49;99502.50;2087362;28;19923;-60
2022/08/11 02:50:50;;;;;;;;;;;;;;;27.88;41.42;99500.78;2078774;28;19924;-61
2022/08/11 02:52:03;;;;;;;;;;;;;;;27.88;41.30;99498.00;2087241;28;19920;-60
2022/08/11 02:53:28;;;;;;;;;;;;;;;27.88;41.47;99498.00;2085020;28;20465;-60
2022/08/11 02:54:35;;;;;;;;;;;;;;;27.88;41.55;99501.66;2072706;28;19939;-61
2022/08/11 02:56:07;;;;;;;;;;;;;;;27.88;41.48;99492.47;2080280;28;20379;-60
2022/08/11 02:57:30;;;;;;;;;;;;;;;27.86;41.40;99498.25;2070365;28;19916;-60
2022/08/11 02:59:48;;;;;;;;;;;;;;;27.87;41.57;99499.09;2078420;28;19908;-61
2022/08/11 03:00:12;;;;;;;;;;;;;;;27.87;41.41;99491.63;2086636;28;19912;-60
2022/08/11 03:01:27;;;;;;;;;;;;;;;27.87;41.51;99504.63;2082540;28;19943;-60
2022/08/11 03:02:30;;;;;;;;;;;;;;;27.86;41.56;99502.94;2079676;28;20042;-61
2022/08/11 03:03:38;;;;;;;;;;;;;;;27.86;41.35;99498.25;2086675;28;19951;-60
2022/08/11 03:04:57;;;;;;;;;;;;;;;27.86;41.45;99502.94;2085015;28;19916;-60
2022/08/11 03:05:57;;;;;;;;;;;;;;;27.86;41.33;99503.78;2085193;28;19917;-61
2022/08/11 03:07:20;;;;;;;;;;;;;;;27.85;41.52;99501.22;2087248;28;20232;-60
2022/08/11 03:08:39;;;;;;;;;;;;;;;27.85;41.62;99501.22;2084826;28;19954;-60
2022/08/11 03:09:43;;;;;;;;;;;;;;;27.84;41.43;99505.09;2086448;28;20434;-60
2022/08/11 03:16:43;;;;;;;;;;;;;;;27.84;41.59;99499.53;2085303;28;20346;-60
2022/08/11 03:16:44;;;;;;;;;;;;;;;27.84;41.42;99502.31;2085832;28;19995;-61
2022/08/11 03:17:51;;;;;;;;;;;;;;;27.84;41.30;99494.00;2084241;28;20005;-60
2022/08/11 03:18:55;;;;;;;;;;;;;;;27.83;41.32;99498.69;2086603;28;19917;-60
2022/08/11 03:20:15;;;;;;;;;;;;;;;27.84;41.24;99500.38;2078206;28;19967;-60
2022/08/11 03:21:28;;;;;;;;;;;;;;;27.85;41.31;99501.22;2066024;28;20007;-60
2022/08/11 03:22:39;;;;;;;;;;;;;;;27.85;41.24;99502.06;2080755;28;19944;-60
2022/08/11 03:23:48;;;;;;;;;;;;;;;27.85;41.14;99495.69;2079961;28;20028;-60
2022/08/11 03:25:04;;;;;;;;;;;;;;;27.85;41.33;99502.06;2082178;28;19970;-61
2022/08/11 03:26:12;;;;;;;;;;;;;;;27.84;41.15;99496.78;2083979;28;19962;-60
2022/08/11 03:27:21;;;;;;;;;;;;;;;27.84;41.02;99500.38;2079071;28;19921;-61
2022/08/11 03:28:31;;;;;;;;;;;;;;;27.84;41.16;99502.31;2078452;28;19931;-60
2022/08/11 03:29:39;;;;;;;;;;;;;;;27.83;41.02;99498.69;2086387;28;20651;-60
2022/08/11 03:30:47;;;;;;;;;;;;;;;27.82;41.08;99496.97;2085363;28;19921;-61
2022/08/11 03:31:50;;;;;;;;;;;;;;;27.82;40.95;99494.22;2085401;28;19963;-60
2022/08/11 03:34:16;;;;;;;;;;;;;;;27.78;40.76;99496.56;2078140;28;19916;-61
2022/08/11 03:35:18;;;;;;;;;;;;;;;27.78;40.80;99491.03;2080597;28;19915;-60
2022/08/11 03:36:18;;;;;;;;;;;;;;;27.78;41.08;99488.25;2078336;28;19927;-60
2022/08/11 03:38:51;;;;;;;;;;;;;;;27.78;40.69;99485.50;2083194;28;19916;-60
2022/08/11 03:39:57;;;;;;;;;;;;;;;27.79;40.67;99492.72;2086328;28;19920;-60
2022/08/11 03:42:36;;;;;;;;;;;;;;;27.78;40.83;99485.50;2084394;28;19917;-61
2022/08/11 03:43:50;;;;;;;;;;;;;;;27.79;40.59;99492.72;2083663;28;20010;-61
2022/08/11 03:44:54;;;;;;;;;;;;;;;27.79;40.41;99487.16;2086015;28;20429;-60
2022/08/11 03:45:56;;;;;;;;;;;;;;;27.79;40.60;99486.34;2081855;28;19919;-61
2022/08/11 03:47:10;;;;;;;;;;;;;;;27.80;40.36;99490.78;2079270;28;19970;-60
2022/08/11 03:48:28;;;;;;;;;;;;;;;27.78;40.26;99485.50;2078342;28;19916;-60
2022/08/11 03:49:52;;;;;;;;;;;;;;;27.78;40.24;99484.63;2078531;28;19917;-60
2022/08/11 03:51:09;;;;;;;;;;;;;;;27.78;40.38;99482.72;2084890;28;19916;-61
2022/08/11 03:52:22;;;;;;;;;;;;;;;27.77;40.21;99489.31;2084348;28;20929;-61
2022/08/11 03:53:27;;;;;;;;;;;;;;;27.76;40.19;99490.41;2083013;28;20322;-60
2022/08/11 03:54:34;;;;;;;;;;;;;;;27.76;40.21;99487.63;2077989;28;19978;-60
2022/08/11 03:55:44;;;;;;;;;;;;;;;27.76;40.18;99493.16;2076021;28;19916;-60
2022/08/11 03:57:02;;;;;;;;;;;;;;;27.76;40.24;99493.16;2079903;28;19917;-61
2022/08/11 03:58:28;;;;;;;;;;;;;;;27.76;40.23;99486.78;2085607;28;19919;-60
2022/08/11 03:59:48;;;;;;;;;;;;;;;27.74;40.16;99489.75;2078285;28;19913;-60
2022/08/11 04:01:07;;;;;;;;;;;;;;;27.75;40.05;99493.38;2079448;28;19915;-60
2022/08/11 04:02:16;;;;;;;;;;;;;;;27.75;39.98;99491.44;2078126;28;19990;-61
2022/08/11 04:03:20;;;;;;;;;;;;;;;27.75;40.13;99490.59;2078208;28;19917;-61
2022/08/11 04:04:23;;;;;;;;;;;;;;;27.75;40.11;99491.44;2081943;28;19921;-60
2022/08/11 04:05:42;;;;;;;;;;;;;;;27.76;40.01;99493.16;2083334;28;19912;-60
2022/08/11 04:07:01;;;;;;;;;;;;;;;27.76;39.86;99493.16;2083396;28;20471;-60
2022/08/11 04:08:02;;;;;;;;;;;;;;;27.77;40.00;99505.91;2084971;28;19974;-60
2022/08/11 04:09:02;;;;;;;;;;;;;;;27.77;39.99;99494.84;2081752;28;19916;-60
2022/08/11 04:10:14;;;;;;;;;;;;;;;27.76;39.84;99495.94;2085460;28;19920;-60
2022/08/11 04:11:21;;;;;;;;;;;;;;;27.76;40.01;99501.47;2079938;28;20712;-61
2022/08/11 04:12:43;;;;;;;;;;;;;;;27.77;39.85;99505.91;2083303;28;20395;-60
2022/08/11 04:13:50;;;;;;;;;;;;;;;27.77;39.88;99508.69;2084761;28;19923;-60
2022/08/11 04:16:09;;;;;;;;;;;;;;;27.77;39.89;99510.63;2078225;28;19921;-60
2022/08/11 04:17:28;;;;;;;;;;;;;;;27.77;39.58;99500.38;2078677;28;20050;-60
2022/08/11 04:18:28;;;;;;;;;;;;;;;27.77;39.61;99500.38;2078053;28;19916;-61
2022/08/11 04:19:49;;;;;;;;;;;;;;;27.76;39.72;99503.41;2084901;28;19916;-60
2022/08/11 04:21:08;;;;;;;;;;;;;;;27.76;39.76;99509.78;2084674;28;19940;-60
2022/08/11 04:22:22;;;;;;;;;;;;;;;27.75;39.69;99502.53;2082829;28;19917;-60
2022/08/11 04:23:41;;;;;;;;;;;;;;;27.76;39.50;99508.94;2077410;28;20279;-60
2022/08/11 04:24:44;;;;;;;;;;;;;;;27.76;39.63;99515.31;2082973;28;19960;-61
2022/08/11 04:26:03;;;;;;;;;;;;;;;27.77;39.60;99513.38;2084910;28;20414;-60
2022/08/11 04:27:17;;;;;;;;;;;;;;;27.76;39.42;99509.78;2088157;28;19925;-60
2022/08/11 04:28:18;;;;;;;;;;;;;;;27.77;39.61;99511.47;2068855;28;20004;-60
2022/08/11 04:29:30;;;;;;;;;;;;;;;27.77;39.38;99513.38;2072526;28;19913;-60
2022/08/11 04:30:50;;;;;;;;;;;;;;;27.78;39.55;99506.75;2081684;28;19960;-60
2022/08/11 04:31:50;;;;;;;;;;;;;;;27.77;39.27;99510.63;2077833;28;19920;-60
2022/08/11 04:33:09;;;;;;;;;;;;;;;27.77;39.55;99514.22;2084912;28;19959;-60
2022/08/11 04:34:13;;;;;;;;;;;;;;;27.77;39.56;99517.00;2079217;28;19931;-60
2022/08/11 04:35:22;;;;;;;;;;;;;;;27.75;39.32;99516.38;2079837;28;19912;-60
2022/08/11 04:37:30;;;;;;;;;;;;;;;27.76;39.33;99508.94;2076328;28;19913;-60
2022/08/11 04:38:04;;;;;;;;;;;;;;;27.75;39.16;99516.38;2077470;28;19917;-60
2022/08/11 04:39:07;;;;;;;;;;;;;;;27.75;39.45;99515.53;2078617;28;20861;-60
2022/08/11 04:40:25;;;;;;;;;;;;;;;27.75;39.29;99521.91;2080755;28;19925;-60
2022/08/11 04:41:32;;;;;;;;;;;;;;;27.75;39.19;99512.75;2077445;28;20023;-61
2022/08/11 04:44:28;;;;;;;;;;;;;;;27.74;39.30;99517.44;2080621;28;19920;-60
2022/08/11 04:45:32;;;;;;;;;;;;;;;27.74;39.10;99523.00;2080021;28;19917;-61
2022/08/11 04:46:47;;;;;;;;;;;;;;;27.74;39.12;99520.22;2081596;28;19961;-61
2022/08/11 05:02:01;;;;;;;;;;;;;;;27.72;39.30;99529.81;2084489;28;19952;-60
2022/08/11 05:03:07;;;;;;;;;;;;;;;27.71;39.23;99540.06;2077288;28;20437;-60
2022/08/11 05:05:29;;;;;;;;;;;;;;;27.70;39.11;99532.78;2074434;28;20011;-60
2022/08/11 05:05:30;;;;;;;;;;;;;;;27.69;39.25;99533.88;2077783;28;19921;-60
2022/08/11 05:06:49;;;;;;;;;;;;;;;27.68;39.12;99534.94;2080948;28;19932;-60
2022/08/11 05:07:52;;;;;;;;;;;;;;;27.68;39.22;99534.94;2083695;28;19962;-60
2022/08/11 05:09:01;;;;;;;;;;;;;;;27.67;39.35;99532.41;2073157;28;19924;-61
2022/08/11 05:10:14;;;;;;;;;;;;;;;27.67;39.30;99537.94;2073340;28;19917;-61
2022/08/11 05:11:17;;;;;;;;;;;;;;;27.66;39.07;99536.22;2077129;28;19932;-60
2022/08/11 05:12:41;;;;;;;;;;;;;;;27.65;39.36;99538.16;2082723;28;20425;-60
2022/08/11 05:35:02;;;;;;;;;;;;;;;27.66;39.23;99559.25;2078897;28;19917;-61
2022/08/11 05:36:07;;;;;;;;;;;;;;;27.66;39.21;99553.72;2079844;28;19917;-60
2022/08/11 05:37:12;;;;;;;;;;;;;;;27.67;39.37;99555.41;2070665;28;19924;-61
2022/08/11 05:57:22;;;;;;;;;;;;;;;27.68;39.30;99562.63;2082929;28;19924;-61
2022/08/11 05:58:22;;;;;;;;;;;;;;;27.67;39.33;99558.16;2083622;28;19912;-61
2022/08/11 05:59:24;;;;;;;;;;;;;;;27.68;39.18;99565.38;2084919;28;19916;-61
2022/08/11 06:00:25;;;;;;;;;;;;;;;27.69;39.25;99569.03;2080772;28;19923;-61
2022/08/11 06:01:29;;;;;;;;;;;;;;;27.68;39.23;99573.69;2074961;28;19972;-60
2022/08/11 06:02:30;;;;;;;;;;;;;;;27.68;39.36;99562.63;2074858;28;19932;-61
2022/08/11 06:03:31;;;;;;;;;;;;;;;27.68;39.19;99562.63;2082099;28;19931;-61
2022/08/11 06:04:32;;;;;;;;;;;;;;;27.67;39.34;99566.47;2084633;28;20846;-60
2022/08/11 06:05:33;;;;;;;;;;;;;;;27.67;39.59;99572.00;2083359;28;19934;-61
2022/08/11 06:06:35;;;;;;;;;;;;;;;27.67;39.48;99572.00;2084493;28;19913;-61
2022/08/11 06:07:35;;;;;;;;;;;;;;;27.67;39.51;99574.78;2083886;28;20039;-61
2022/08/11 06:08:36;;;;;;;;;;;;;;;27.67;39.37;99577.53;2080526;28;19920;-60
2022/08/11 06:09:56;;;;;;;;;;;;;;;27.66;39.63;99581.41;2079856;28;19920;-61
2022/08/11 06:11:02;;;;;;;;;;;;;;;27.66;39.88;99580.53;2080602;28;19916;-61
2022/08/11 06:12:05;;;;;;;;;;;;;;;27.65;39.82;99581.59;2082811;28;19922;-60
2022/08/11 06:13:06;;;;;;;;;;;;;;;27.63;39.93;99581.81;2082203;28;19970;-61
2022/08/11 06:14:09;;;;;;;;;;;;;;;27.65;39.86;99582.44;2084776;28;19959;-61
2022/08/11 06:15:11;;;;;;;;;;;;;;;27.65;39.90;99579.69;2086688;28;20414;-61
2022/08/11 06:16:13;;;;;;;;;;;;;;;27.64;39.96;99575.22;2082608;28;19916;-60
2022/08/11 06:17:13;;;;;;;;;;;;;;;27.64;40.14;99580.75;2082138;28;19913;-61
2022/08/11 06:18:14;;;;;;;;;;;;;;;27.65;40.23;99585.22;2081307;28;19920;-60
2022/08/11 06:19:15;;;;;;;;;;;;;;;27.65;40.14;99585.22;2081368;28;19932;-60
2022/08/11 06:20:17;;;;;;;;;;;;;;;27.64;40.14;99578.00;2085552;28;19920;-60
2022/08/11 06:21:17;;;;;;;;;;;;;;;27.64;39.95;99578.00;2085257;28;19928;-62
2022/08/11 06:22:21;;;;;;;;;;;;;;;27.64;39.89;99583.53;2083321;28;19908;-62
2022/08/11 06:23:24;;;;;;;;;;;;;;;27.64;40.20;99578.00;2085667;28;20003;-61
2022/08/11 06:24:27;;;;;;;;;;;;;;;27.64;39.77;99582.69;2083871;28;19927;-61
2022/08/11 06:25:31;;;;;;;;;;;;;;;27.63;40.33;99579.03;2075654;28;19917;-61
2022/08/11 06:26:32;;;;;;;;;;;;;;;27.63;40.25;99581.81;2076077;28;19927;-61
2022/08/11 06:27:34;;;;;;;;;;;;;;;27.62;40.39;99580.13;2078364;28;19916;-61
2022/08/11 06:28:35;;;;;;;;;;;;;;;27.63;40.50;99576.28;2083701;28;19951;-61
2022/08/11 06:29:39;;;;;;;;;;;;;;;27.63;40.18;99565.19;2080420;28;19927;-61
2022/08/11 06:30:41;;;;;;;;;;;;;;;27.63;40.18;99573.50;2079738;28;19927;-61
2022/08/11 06:31:41;;;;;;;;;;;;;;;27.63;40.54;99565.19;2082200;28;19920;-61
2022/08/11 06:32:43;;;;;;;;;;;;;;;27.64;40.70;99577.16;2081188;28;20219;-61
2022/08/11 06:33:54;;;;;;;;;;;;;;;27.63;40.43;99567.97;2079488;28;19970;-61
2022/08/11 06:35:02;;;;;;;;;;;;;;;27.63;40.69;99567.97;2077636;28;19916;-61
2022/08/11 06:36:05;;;;;;;;;;;;;;;27.63;40.70;99565.19;2075542;28;19920;-61
2022/08/11 06:37:14;;;;;;;;;;;;;;;27.63;40.84;99559.66;2085078;28;19923;-61
2022/08/11 06:38:34;;;;;;;;;;;;;;;27.62;40.92;99557.97;2083771;28;19922;-61
2022/08/11 06:39:43;;;;;;;;;;;;;;;27.63;40.69;99564.34;2078769;28;19905;-61
2022/08/11 06:42:32;;;;;;;;;;;;;;;27.63;40.54;99565.19;2077964;28;19921;-60
2022/08/11 06:43:44;;;;;;;;;;;;;;;27.65;40.63;99562.22;2083183;28;20876;-61
2022/08/11 06:44:53;;;;;;;;;;;;;;;27.66;40.73;99562.00;2081293;28;19916;-60
2022/08/11 06:46:01;;;;;;;;;;;;;;;27.66;40.63;99573.09;2084070;28;19917;-61
2022/08/11 06:47:07;;;;;;;;;;;;;;;27.67;40.66;99566.47;2079215;28;19920;-61
2022/08/11 06:48:14;;;;;;;;;;;;;;;27.67;40.45;99572.00;2080953;28;20544;-61
2022/08/11 06:51:57;;;;;;;;;;;;;;;27.69;40.30;99569.03;2083915;28;19917;-60
2022/08/11 06:52:58;;;;;;;;;;;;;;;27.69;40.17;99566.25;2083118;28;19920;-61
2022/08/11 06:54:00;;;;;;;;;;;;;;;27.70;40.24;99570.72;2084076;28;19965;-61
2022/08/11 06:55:05;;;;;;;;;;;;;;;27.69;39.95;99575.41;2083317;28;19912;-61
2022/08/11 07:01:46;;;;;;;;;;;;;;;27.70;40.01;99570.72;2081005;28;19916;-60
2022/08/11 07:02:47;;;;;;;;;;;;;;;27.70;40.04;99565.19;2084406;28;19909;-61
2022/08/11 07:03:53;;;;;;;;;;;;;;;27.71;39.94;99566.91;2079635;28;19916;-60
2022/08/11 07:04:53;;;;;;;;;;;;;;;27.70;39.85;99571.56;2082910;28;19908;-61
2022/08/11 07:06:04;;;;;;;;;;;;;;;27.70;39.86;99577.09;2081067;28;20790;-61
2022/08/11 07:15:43;;;;;;;;;;;;;;;27.71;39.72;99562.19;2079322;28;19922;-61
2022/08/11 07:16:45;;;;;;;;;;;;;;;27.71;40.08;99578.81;2084993;28;19920;-61
2022/08/11 07:28:54;;;;;;;;;;;;;;;27.71;39.74;99572.44;2084889;28;19917;-61
2022/08/11 07:28:57;;;;;;;;;;;;;;;27.73;39.59;99565.59;2077054;28;20450;-61
2022/08/11 07:29:59;;;;;;;;;;;;;;;27.72;39.63;99560.28;2081613;28;19923;-61
2022/08/11 07:31:02;;;;;;;;;;;;;;;27.72;39.80;99563.03;2081443;28;19915;-61
2022/08/11 07:32:10;;;;;;;;;;;;;;;27.73;39.85;99565.59;2081181;28;19924;-61
2022/08/11 07:33:12;;;;;;;;;;;;;;;27.73;39.76;99565.59;2080697;28;19913;-61
2022/08/11 07:34:26;;;;;;;;;;;;;;;27.73;39.72;99568.38;2082292;28;19924;-61
2022/08/11 07:35:31;;;;;;;;;;;;;;;27.73;39.73;99565.59;2080157;28;19920;-61
2022/08/11 07:36:33;;;;;;;;;;;;;;;27.74;39.54;99569.22;2082385;28;19916;-61
2022/08/11 07:37:34;;;;;;;;;;;;;;;27.74;39.79;99572.84;2081017;28;20050;-61
2022/08/11 07:38:43;;;;;;;;;;;;;;;27.73;39.83;99571.16;2082619;28;20141;-61
2022/08/11 07:39:44;;;;;;;;;;;;;;;27.75;39.85;99573.69;2075278;28;20023;-61
2022/08/11 07:40:45;;;;;;;;;;;;;;;27.73;39.64;99568.38;2074970;28;19920;-61
2022/08/11 07:41:47;;;;;;;;;;;;;;;27.74;39.83;99566.44;2083328;28;19908;-61
2022/08/11 07:42:48;;;;;;;;;;;;;;;27.74;39.59;99561.75;2084011;28;19966;-61
2022/08/11 07:43:54;;;;;;;;;;;;;;;27.74;39.64;99560.91;2079444;28;19909;-61
2022/08/11 07:52:52;;;;;;;;;;;;;;;27.75;39.65;99563.44;2082246;28;19917;-61
2022/08/11 07:53:53;;;;;;;;;;;;;;;27.75;39.63;99557.06;2078069;28;19924;-61
2022/08/11 07:54:55;;;;;;;;;;;;;;;27.75;39.78;99555.13;2080588;28;20494;-60
2022/08/11 07:55:56;;;;;;;;;;;;;;;27.76;39.69;99559.63;2078123;28;19964;-61
2022/08/11 07:56:57;;;;;;;;;;;;;;;27.75;39.42;99552.38;2083595;28;19916;-61